McGrath, AK

8:47 AM AKST on January 26, 2015 (GMT -0900)
Tatalina | Change Station
CLOSE
Current Station
Airport
Location: Tatalina,
Elevation: 965 ft
Nearby Weather Stations

Elev 965 ft 62.89 °N, 155.98 °W | Updated 52 minutes ago

Partly Cloudy
Partly Cloudy
-25 °F
Feels Like -36 °F
N
4
Wind Variable Wind from East

Today
High -- | Low -- °F
--% Chance of Precip.
Yesterday
High -- | Low -- °F
Precip. -- in
10:07 AM 4:58 PM
Waxing Crescent, 45% visible
Pressure 30.25 in
Visibility 10.0 miles
Clouds Few 25000 ft
Windchill -36 °F
Dew Point -30 °F
Humidity 77%
Rainfall 0.00 in
Snow Depth Not available.
UV 0 out of 12
Pollen Not available.
Air Quality Not available.
Flu Activity Not available.
METAR PATL 261655Z AUTO 09003KT 10SM FEW250 M32/M34 A3007 RMK AO2 SLP242 T13161344

More Conditions Fewer Conditions

Pressure 30.25 in
Visibility 10.0 miles
Clouds Few 25000 ft
Windchill -36 °F
Dew Point -30 °F
Humidity 77%
Rainfall 0.00 in
Snow Depth Not available.
UV 0 out of 12
Pollen Not available.
Air Quality Not available.
Flu Activity Not available.
METAR PATL 261655Z AUTO 09003KT 10SM FEW250 M32/M34 A3007 RMK AO2 SLP242 T13161344

More Conditions Fewer Conditions

10-Day Weather Forecast

Almanac

Astronomy

Jan. 26, 2015 Rise Set
Actual Time
Civil Twilight
Nautical Twilight
Astronomical Twilight
Moon
Length of Visible Light
Length of Day
Tomorrow will be .
, % of the Moon is Illuminated

Today's Extremes

State Highs State Lows

Community

WunderPhotos

Upload Photos

1,790,301 photos uploaded!

WunderBlogs® & News

Nearby

Air Quality

  Air Quality AQ Index Pollutant
Not available.

Snow Depth

Station Depth Elevation

Earthquake Activity

City Distance Mag. Time & Date
Minimum magnitude displayed is 2.5.

Coastal Water Temperatures

Place Temperature

Nearby Weather Stations